createdAt,value
2022-08-27T00:05:55.131Z,1.50
2022-08-27T00:08:56.892Z,1.58
2022-08-27T00:11:59.600Z,1.50
2022-08-27T00:15:01.622Z,1.50
2022-08-27T00:18:04.263Z,1.40
2022-08-27T00:21:06.952Z,1.80
2022-08-27T00:24:10.061Z,1.73
2022-08-27T00:27:12.425Z,1.83
2022-08-27T00:30:17.638Z,1.80
2022-08-27T00:33:19.419Z,1.90
2022-08-27T00:36:21.609Z,2.00
2022-08-27T00:39:23.825Z,2.05
2022-08-27T00:42:26.463Z,1.50
2022-08-27T00:45:36.733Z,1.80
2022-08-27T00:48:38.576Z,1.58
2022-08-27T00:51:40.708Z,1.60
2022-08-27T00:54:42.607Z,1.83
2022-08-27T00:57:48.122Z,2.08
2022-08-27T01:00:50.156Z,1.73
2022-08-27T01:03:55.984Z,1.85
2022-08-27T01:06:58.822Z,1.65
2022-08-27T01:10:02.631Z,2.08
2022-08-27T01:13:06.943Z,1.52
2022-08-27T01:16:11.313Z,1.83
2022-08-27T01:19:29.113Z,1.60
2022-08-27T01:22:39.855Z,2.03
2022-08-27T01:25:43.852Z,1.75
2022-08-27T01:28:45.876Z,1.60
2022-08-27T01:31:48.206Z,1.90
2022-08-27T01:34:50.541Z,1.60
2022-08-27T01:37:57.134Z,1.63
2022-08-27T01:41:02.734Z,1.95
2022-08-27T01:44:04.763Z,1.92
2022-08-27T01:47:06.518Z,1.83
2022-08-27T01:50:24.258Z,2.20
2022-08-27T01:53:27.234Z,1.65
2022-08-27T01:56:29.232Z,1.58
2022-08-27T01:59:39.529Z,1.88
2022-08-27T02:02:42.489Z,2.17
2022-08-27T02:05:46.358Z,1.75
2022-08-27T02:08:48.348Z,1.85
2022-08-27T02:11:50.325Z,1.90
2022-08-27T02:14:52.382Z,1.70
2022-08-27T02:17:54.619Z,1.75
2022-08-27T02:20:56.455Z,1.50
2022-08-27T02:23:58.661Z,1.83
2022-08-27T02:27:00.774Z,1.83
2022-08-27T02:30:02.844Z,2.17
2022-08-27T02:33:05.912Z,2.20
2022-08-27T02:36:08.873Z,1.77
2022-08-27T02:39:11.351Z,1.77
2022-08-27T02:42:13.120Z,1.87
2022-08-27T02:45:16.360Z,2.10
2022-08-27T02:48:18.216Z,2.42
2022-08-27T02:51:20.079Z,2.30
2022-08-27T02:54:23.945Z,2.05
2022-08-27T02:57:28.180Z,2.30
2022-08-27T03:00:30.280Z,2.65
2022-08-27T03:03:32.493Z,2.45
2022-08-27T03:06:34.739Z,2.92
2022-08-27T03:09:36.758Z,2.60
2022-08-27T03:12:38.461Z,2.58
2022-08-27T03:15:40.508Z,5.43
2022-08-27T03:18:42.259Z,4.07
2022-08-27T03:21:44.562Z,3.00
2022-08-27T03:24:56.885Z,4.32
2022-08-27T03:27:58.608Z,3.10
2022-08-27T03:31:04.381Z,2.92
2022-08-27T03:34:09.579Z,5.07
2022-08-27T03:37:11.505Z,4.13
2022-08-27T03:40:14.446Z,4.10
2022-08-27T03:46:20.884Z,3.55
2022-08-27T03:52:26.265Z,3.28
2022-08-27T03:55:28.219Z,3.30
2022-08-27T03:58:30.392Z,3.70
2022-08-27T04:01:32.404Z,3.65
2022-08-27T04:04:34.395Z,4.43
2022-08-27T04:07:36.509Z,3.33
2022-08-27T04:10:42.211Z,3.60
2022-08-27T04:13:44.387Z,3.28
2022-08-27T04:16:48.143Z,2.50
2022-08-27T04:19:53.515Z,3.10
2022-08-27T04:22:55.232Z,3.13
2022-08-27T04:25:57.772Z,3.40
2022-08-27T04:28:59.776Z,2.93
2022-08-27T04:32:01.602Z,3.55
2022-08-27T04:35:03.511Z,2.80
2022-08-27T04:38:05.255Z,3.05
2022-08-27T04:41:19.861Z,3.10
2022-08-27T04:44:22.704Z,2.95
2022-08-27T04:47:24.460Z,3.15
2022-08-27T04:50:26.420Z,3.05
2022-08-27T04:53:28.758Z,3.08
2022-08-27T04:56:31.318Z,2.95
2022-08-27T04:59:34.803Z,3.10
2022-08-27T05:05:38.710Z,3.17
2022-08-27T05:08:44.907Z,3.15
2022-08-27T05:11:47.098Z,3.53
2022-08-27T05:14:48.968Z,3.35
2022-08-27T05:17:50.711Z,3.25
2022-08-27T05:20:52.754Z,3.50
2022-08-27T05:23:56.611Z,3.08
2022-08-27T05:26:59.412Z,3.10
2022-08-27T05:30:01.498Z,3.20
2022-08-27T05:33:03.607Z,3.40
2022-08-27T05:36:07.367Z,2.95
2022-08-27T05:39:10.212Z,3.80
2022-08-27T05:42:12.589Z,3.25
2022-08-27T05:45:17.256Z,3.08
2022-08-27T05:48:19.074Z,3.00
2022-08-27T05:51:28.251Z,3.38
2022-08-27T05:54:30.009Z,3.03
2022-08-27T05:57:31.931Z,3.22
2022-08-27T06:00:57.537Z,3.45
2022-08-27T06:04:01.229Z,3.08
2022-08-27T06:07:03.276Z,3.38
2022-08-27T06:10:07.617Z,3.30
2022-08-27T06:13:10.596Z,3.25
2022-08-27T06:16:15.747Z,3.28
2022-08-27T06:19:18.838Z,3.20
2022-08-27T06:22:20.619Z,3.20
2022-08-27T06:25:22.811Z,3.05
2022-08-27T06:28:31.374Z,3.58
2022-08-27T06:31:35.640Z,3.13
2022-08-27T06:34:38.282Z,3.65
2022-08-27T06:37:40.072Z,3.47
2022-08-27T06:40:42.200Z,3.25
2022-08-27T06:43:44.520Z,2.85
2022-08-27T06:46:46.446Z,3.30
2022-08-27T06:49:48.547Z,3.30
2022-08-27T06:52:50.345Z,3.38
2022-08-27T06:55:52.341Z,3.17
2022-08-27T06:58:55.705Z,3.40
2022-08-27T07:04:59.320Z,3.63
2022-08-27T07:08:02.360Z,3.38
2022-08-27T07:11:04.563Z,3.30
2022-08-27T07:14:08.382Z,3.08
2022-08-27T07:17:11.150Z,3.08
2022-08-27T07:20:19.076Z,2.80
2022-08-27T07:23:21.613Z,2.80
2022-08-27T07:26:24.394Z,3.07
2022-08-27T07:29:29.272Z,2.88
2022-08-27T07:32:34.355Z,2.60
2022-08-27T07:35:36.297Z,2.80
2022-08-27T07:38:38.144Z,2.92
2022-08-27T07:41:58.794Z,2.78
2022-08-27T07:45:00.586Z,2.95
2022-08-27T07:48:03.222Z,2.60
2022-08-27T07:51:05.485Z,2.63
2022-08-27T07:54:07.445Z,2.67
2022-08-27T07:57:10.476Z,3.03
2022-08-27T08:00:15.907Z,3.40
2022-08-27T08:03:17.900Z,2.70
2022-08-27T08:06:19.698Z,2.60
2022-08-27T08:09:23.846Z,3.10
2022-08-27T08:12:27.057Z,2.80
2022-08-27T08:15:29.058Z,2.60
2022-08-27T08:18:31.034Z,2.50
2022-08-27T08:21:32.854Z,2.40
2022-08-27T08:24:36.832Z,2.33
2022-08-27T08:27:38.539Z,2.42
2022-08-27T08:30:43.701Z,2.53
2022-08-27T08:33:46.995Z,2.17
2022-08-27T08:36:53.958Z,2.13
2022-08-27T08:39:56.876Z,2.80
2022-08-27T08:43:00.483Z,2.63
2022-08-27T08:46:27.262Z,2.20
2022-08-27T08:49:50.705Z,2.67
2022-08-27T08:53:09.526Z,2.40
2022-08-27T08:56:18.532Z,2.63
2022-08-27T08:59:41.868Z,2.28
2022-08-27T09:02:53.621Z,2.22
2022-08-27T09:06:07.757Z,2.58
2022-08-27T09:09:39.278Z,1.92
2022-08-27T09:12:41.599Z,2.35
2022-08-27T09:15:43.887Z,2.40
2022-08-27T09:18:45.804Z,2.45
2022-08-27T09:22:01.947Z,2.38
2022-08-27T09:25:31.794Z,2.40
2022-08-27T09:28:52.815Z,2.10
2022-08-27T09:32:25.731Z,2.60
2022-08-27T09:35:34.558Z,2.65
2022-08-27T09:38:37.419Z,2.10
2022-08-27T09:41:45.475Z,2.58
2022-08-27T09:44:53.616Z,2.28
2022-08-27T09:48:07.308Z,2.50
2022-08-27T09:54:44.249Z,2.03
2022-08-27T09:57:46.163Z,2.28
2022-08-27T10:00:49.708Z,2.22
2022-08-27T10:04:03.620Z,2.17
2022-08-27T10:07:38.675Z,2.70
2022-08-27T10:10:53.906Z,2.53
2022-08-27T10:14:16.400Z,2.42
2022-08-27T10:17:44.403Z,2.50
2022-08-27T10:21:25.558Z,2.13
2022-08-27T10:24:55.166Z,2.45
2022-08-27T10:28:14.159Z,2.58
2022-08-27T10:31:40.071Z,2.00
2022-08-27T10:34:55.664Z,2.38
2022-08-27T10:38:22.504Z,2.30
2022-08-27T10:41:33.502Z,2.22
2022-08-27T10:45:09.914Z,2.13
2022-08-27T10:48:34.530Z,2.13
2022-08-27T10:51:56.577Z,2.10
2022-08-27T10:55:11.325Z,2.40
2022-08-27T10:58:55.158Z,2.17
2022-08-27T11:02:06.313Z,2.05
2022-08-27T11:05:40.022Z,2.38
2022-08-27T11:08:50.062Z,2.35
2022-08-27T11:12:13.776Z,2.20
2022-08-27T11:15:41.515Z,2.05
2022-08-27T11:18:56.766Z,1.77
2022-08-27T11:22:17.086Z,2.28
2022-08-27T11:25:53.962Z,2.10
2022-08-27T11:28:59.504Z,2.28
2022-08-27T11:32:03.997Z,2.47
2022-08-27T11:35:17.061Z,2.35
2022-08-27T11:38:37.004Z,1.77
2022-08-27T11:42:03.909Z,2.25
2022-08-27T11:45:34.778Z,2.55
2022-08-27T11:48:40.694Z,2.25
2022-08-27T11:51:42.452Z,2.40
2022-08-27T11:54:51.023Z,2.35
2022-08-27T11:58:20.087Z,2.50
2022-08-27T12:01:27.852Z,2.17
2022-08-27T12:04:32.705Z,2.65
2022-08-27T12:07:37.499Z,2.20
2022-08-27T12:11:09.207Z,2.50
2022-08-27T12:14:54.765Z,2.88
2022-08-27T12:18:29.688Z,2.55
2022-08-27T12:21:55.790Z,3.17
2022-08-27T12:24:59.490Z,3.00
2022-08-27T12:28:05.577Z,2.92
2022-08-27T12:31:08.620Z,2.88
2022-08-27T12:34:19.084Z,2.83
2022-08-27T12:37:27.542Z,3.42
2022-08-27T12:40:49.655Z,3.60
2022-08-27T12:44:03.680Z,3.72
2022-08-27T12:47:08.749Z,3.97
2022-08-27T12:50:12.653Z,3.95
2022-08-27T12:53:34.225Z,3.58
2022-08-27T12:56:54.088Z,4.22
2022-08-27T13:00:19.689Z,3.00
2022-08-27T13:03:41.032Z,3.60
2022-08-27T13:06:45.431Z,3.63
2022-08-27T13:09:47.188Z,3.58
2022-08-27T13:13:00.351Z,3.60
2022-08-27T13:16:03.712Z,3.47
2022-08-27T13:22:08.349Z,3.17
2022-08-27T13:25:27.485Z,3.35
2022-08-27T13:28:30.786Z,3.67
2022-08-27T13:31:34.483Z,2.90
2022-08-27T13:34:39.106Z,3.50
2022-08-27T13:37:53.441Z,3.45
2022-08-27T13:40:57.829Z,3.85
2022-08-27T13:44:15.304Z,3.47
2022-08-27T13:47:19.294Z,3.33
2022-08-27T13:50:28.464Z,3.67
2022-08-27T13:53:50.377Z,3.53
2022-08-27T13:56:55.243Z,3.75
2022-08-27T14:00:18.866Z,4.05
2022-08-27T14:03:25.794Z,3.42
2022-08-27T14:06:42.941Z,3.92
2022-08-27T14:09:54.447Z,3.78
2022-08-27T14:13:00.068Z,4.10
2022-08-27T14:16:24.221Z,3.58
2022-08-27T14:19:29.368Z,3.45
2022-08-27T14:22:37.790Z,3.60
2022-08-27T14:25:41.274Z,4.18
2022-08-27T14:28:43.453Z,3.42
2022-08-27T14:31:45.845Z,3.60
2022-08-27T14:34:48.542Z,3.60
2022-08-27T14:37:50.493Z,3.50
2022-08-27T14:40:54.648Z,3.45
2022-08-27T14:43:57.360Z,3.50
2022-08-27T14:47:00.228Z,3.22
2022-08-27T14:50:03.685Z,3.67
2022-08-27T14:53:06.196Z,3.97
2022-08-27T14:56:08.071Z,3.50
2022-08-27T14:59:09.887Z,3.72
2022-08-27T15:02:17.145Z,3.72
2022-08-27T15:05:21.874Z,3.50
2022-08-27T15:08:29.366Z,3.70
2022-08-27T15:11:35.925Z,3.75
2022-08-27T15:14:38.371Z,3.80
2022-08-27T15:17:40.820Z,3.93
2022-08-27T15:20:42.831Z,4.20
2022-08-27T15:23:48.497Z,3.72
2022-08-27T15:26:53.039Z,3.40
2022-08-27T15:29:55.054Z,3.10
2022-08-27T15:32:57.238Z,4.03
2022-08-27T15:36:03.888Z,3.50
2022-08-27T15:39:06.259Z,3.30
2022-08-27T15:42:09.027Z,3.47
2022-08-27T15:45:12.957Z,3.70
2022-08-27T15:48:14.712Z,3.35
2022-08-27T15:51:28.938Z,3.70
2022-08-27T15:54:30.998Z,3.45
2022-08-27T15:57:32.719Z,3.53
2022-08-27T16:00:36.608Z,3.97
2022-08-27T16:03:40.727Z,3.72
2022-08-27T16:06:42.515Z,3.33
2022-08-27T16:09:44.953Z,3.22
2022-08-27T16:12:46.765Z,3.80
2022-08-27T16:15:48.817Z,3.80
2022-08-27T16:18:51.231Z,4.10
2022-08-27T16:21:53.252Z,3.45
2022-08-27T16:24:56.287Z,3.60
2022-08-27T16:28:00.930Z,4.00
2022-08-27T16:31:03.146Z,3.97
2022-08-27T16:34:11.113Z,3.50
2022-08-27T16:37:13.090Z,3.53
2022-08-27T16:40:16.636Z,3.60
2022-08-27T16:43:22.263Z,3.35
2022-08-27T16:46:24.106Z,3.53
2022-08-27T16:49:49.384Z,3.67
2022-08-27T16:52:51.360Z,3.20
2022-08-27T16:55:53.236Z,2.83
2022-08-27T16:58:55.074Z,3.47
2022-08-27T17:01:57.380Z,3.58
2022-08-27T17:05:07.252Z,3.58
2022-08-27T17:08:26.644Z,3.63
2022-08-27T17:11:30.779Z,3.30
2022-08-27T17:14:37.913Z,3.55
2022-08-27T17:17:40.671Z,3.45
2022-08-27T17:20:43.196Z,3.40
2022-08-27T17:23:50.111Z,3.77
2022-08-27T17:26:51.834Z,3.42
2022-08-27T17:29:54.000Z,3.30
2022-08-27T17:32:55.868Z,3.25
2022-08-27T17:35:58.544Z,3.40
2022-08-27T17:39:02.569Z,3.78
2022-08-27T17:42:05.376Z,3.10
2022-08-27T17:45:07.755Z,3.50
2022-08-27T17:48:14.042Z,3.40
2022-08-27T17:51:21.734Z,3.40
2022-08-27T17:54:40.405Z,3.47
2022-08-27T17:57:42.769Z,3.30
2022-08-27T18:00:44.981Z,3.42
2022-08-27T18:03:48.045Z,3.40
2022-08-27T18:06:50.283Z,3.72
2022-08-27T18:09:52.148Z,3.42
2022-08-27T18:12:55.476Z,3.30
2022-08-27T18:18:58.957Z,3.35
2022-08-27T18:22:00.965Z,3.85
2022-08-27T18:25:05.254Z,3.97
2022-08-27T18:28:11.298Z,4.38
2022-08-27T18:31:15.841Z,4.13
2022-08-27T18:34:20.886Z,4.35
2022-08-27T18:37:23.071Z,4.50
2022-08-27T18:40:28.056Z,4.45
2022-08-27T18:43:34.675Z,3.75
2022-08-27T18:46:36.401Z,4.50
2022-08-27T18:49:38.604Z,4.35
2022-08-27T18:52:41.098Z,4.15
2022-08-27T18:55:42.928Z,3.53
2022-08-27T18:58:45.887Z,4.05
2022-08-27T19:01:48.088Z,3.67
2022-08-27T19:04:50.291Z,3.60
2022-08-27T19:07:52.644Z,3.92
2022-08-27T19:10:55.689Z,4.00
2022-08-27T19:13:57.956Z,4.00
2022-08-27T19:17:02.613Z,3.60
2022-08-27T19:20:06.474Z,3.13
2022-08-27T19:23:08.439Z,3.42
2022-08-27T19:26:18.176Z,2.53
2022-08-27T19:29:20.172Z,2.22
2022-08-27T19:32:22.431Z,1.92
2022-08-27T19:35:25.640Z,2.40
2022-08-27T19:38:31.530Z,1.77
2022-08-27T19:41:33.600Z,1.70
2022-08-27T19:44:35.721Z,1.73
2022-08-27T19:47:37.693Z,2.05
2022-08-27T19:50:39.643Z,1.60
2022-08-27T19:53:42.387Z,1.83
2022-08-27T19:56:44.139Z,1.75
2022-08-27T19:59:46.296Z,1.92
2022-08-27T20:02:48.853Z,1.80
2022-08-27T20:05:53.282Z,1.80
2022-08-27T20:08:55.018Z,1.73
2022-08-27T20:11:56.755Z,1.65
2022-08-27T20:14:58.664Z,1.50
2022-08-27T20:18:00.899Z,2.17
2022-08-27T20:21:06.196Z,1.92
2022-08-27T20:24:09.161Z,2.13
2022-08-27T20:27:11.430Z,1.90
2022-08-27T20:30:15.101Z,1.70
2022-08-27T20:33:17.256Z,1.65
2022-08-27T20:36:29.525Z,1.77
2022-08-27T20:39:32.334Z,1.75
2022-08-27T20:42:34.433Z,1.65
2022-08-27T20:45:37.319Z,1.63
2022-08-27T20:48:39.239Z,1.85
2022-08-27T20:52:02.307Z,2.10
2022-08-27T20:55:04.062Z,1.67
2022-08-27T20:58:24.407Z,1.77
2022-08-27T21:01:26.367Z,2.00
2022-08-27T21:04:28.610Z,1.92
2022-08-27T21:07:30.462Z,1.70
2022-08-27T21:10:33.239Z,2.08
2022-08-27T21:13:46.538Z,1.98
2022-08-27T21:16:57.415Z,1.80
2022-08-27T21:19:59.375Z,1.92
2022-08-27T21:23:01.285Z,1.70
2022-08-27T21:26:12.596Z,2.10
2022-08-27T21:29:16.117Z,1.52
2022-08-27T21:32:18.044Z,1.85
2022-08-27T21:35:19.823Z,2.10
2022-08-27T21:38:21.904Z,1.40
2022-08-27T21:41:24.395Z,1.83
2022-08-27T21:44:26.837Z,1.90
2022-08-27T21:47:30.162Z,1.70
2022-08-27T21:50:31.968Z,1.77
2022-08-27T21:53:33.960Z,2.10
2022-08-27T21:56:35.714Z,1.80
2022-08-27T21:59:43.404Z,1.90
2022-08-27T22:02:45.184Z,1.60
2022-08-27T22:05:47.937Z,2.80
2022-08-27T22:08:50.003Z,2.30
2022-08-27T22:11:51.818Z,3.60
2022-08-27T22:14:53.586Z,3.80
2022-08-27T22:17:55.374Z,2.80
2022-08-27T22:20:58.787Z,2.22
2022-08-27T22:27:04.161Z,1.58
2022-08-27T22:30:10.979Z,1.80
2022-08-27T22:33:14.050Z,1.60
2022-08-27T22:36:16.106Z,1.75
2022-08-27T22:39:17.911Z,1.80
2022-08-27T22:42:19.792Z,1.70
2022-08-27T22:45:22.695Z,1.67
2022-08-27T22:48:24.447Z,1.70
2022-08-27T22:51:26.256Z,1.25
2022-08-27T22:54:28.078Z,1.70
2022-08-27T22:57:30.125Z,1.75
2022-08-27T23:00:35.226Z,1.85
2022-08-27T23:03:37.528Z,1.83
2022-08-27T23:06:39.360Z,1.63
2022-08-27T23:09:41.094Z,1.65
2022-08-27T23:12:45.987Z,1.50
2022-08-27T23:15:48.093Z,2.00
2022-08-27T23:18:50.207Z,1.50
2022-08-27T23:21:52.046Z,1.35
2022-08-27T23:25:13.381Z,1.60
2022-08-27T23:28:15.921Z,1.80
2022-08-27T23:31:18.831Z,1.30
2022-08-27T23:34:21.196Z,1.77
2022-08-27T23:37:24.042Z,2.00
2022-08-27T23:40:26.102Z,1.58
2022-08-27T23:43:28.245Z,1.55
2022-08-27T23:46:30.638Z,1.48
2022-08-27T23:49:32.672Z,1.67
2022-08-27T23:52:34.686Z,1.38
2022-08-27T23:55:40.116Z,1.30
2022-08-27T23:58:42.150Z,1.55
